Time;durP1;ratioP1;P1;durP2;ratioP2;P2;SDS_P1;SDS_P2;PMS_P1;PMS_P2;Temp;Humidity;BMP_temperature;BMP_pressure;BME280_temperature;BME280_humidity;BME280_pressure;Samples;Min_cycle;Max_cycle;Signal;HPM_P1;HPM_P2
2023/01/22 00:02:23;;;;;;;0.00;0.00;;;1.90;83.00;;;;;;4969293;28;20988;-69
2023/01/22 00:04:49;;;;;;;0.00;0.00;;;2.00;83.10;;;;;;4970406;28;20503;-69
2023/01/22 00:07:15;;;;;;;0.00;0.00;;;2.00;83.10;;;;;;4969898;28;20080;-69
2023/01/22 00:09:41;;;;;;;0.00;0.00;;;1.90;83.20;;;;;;4975466;28;20050;-69
2023/01/22 00:12:08;;;;;;;0.00;0.00;;;1.90;83.20;;;;;;4978887;28;20607;-69
2023/01/22 00:14:33;;;;;;;0.00;0.00;;;1.90;83.20;;;;;;4988515;28;20038;-69
2023/01/22 00:16:59;;;;;;;0.28;0.28;;;1.90;83.30;;;;;;4973830;28;20051;-69
2023/01/22 00:19:24;;;;;;;0.00;0.00;;;1.90;83.30;;;;;;4976513;28;20068;-69
2023/01/22 00:21:50;;;;;;;0.00;0.00;;;1.90;83.30;;;;;;4993242;28;20050;-69
2023/01/22 00:24:16;;;;;;;0.00;0.00;;;1.90;83.30;;;;;;4992869;28;20089;-69
2023/01/22 00:26:42;;;;;;;0.00;0.00;;;1.90;83.20;;;;;;4974497;28;20046;-69
2023/01/22 00:29:07;;;;;;;0.00;0.00;;;1.90;83.20;;;;;;4978527;28;20129;-69
2023/01/22 00:31:33;;;;;;;0.10;0.10;;;1.90;83.30;;;;;;4976580;28;20042;-69
2023/01/22 00:33:58;;;;;;;0.00;0.00;;;1.90;83.20;;;;;;4973345;28;20047;-69
2023/01/22 00:36:24;;;;;;;0.00;0.00;;;1.90;83.20;;;;;;4986222;28;20057;-69
2023/01/22 00:38:50;;;;;;;0.00;0.00;;;2.00;83.20;;;;;;4989542;28;20495;-69
2023/01/22 00:41:17;;;;;;;0.00;0.00;;;1.90;83.20;;;;;;4983808;28;20049;-69
2023/01/22 00:43:43;;;;;;;0.00;0.00;;;1.90;83.20;;;;;;4992615;28;20057;-69
2023/01/22 00:46:12;;;;;;;0.00;0.00;;;1.90;83.20;;;;;;4983458;28;20439;-69
2023/01/22 00:48:37;;;;;;;0.00;0.00;;;1.90;83.20;;;;;;4991003;28;20086;-69
2023/01/22 00:51:04;;;;;;;0.00;0.00;;;1.80;83.20;;;;;;4985408;28;20078;-69
2023/01/22 00:53:30;;;;;;;0.00;0.00;;;1.80;83.20;;;;;;4972827;28;20059;-70
2023/01/22 00:55:58;;;;;;;0.00;0.00;;;1.80;83.30;;;;;;4982900;28;20034;-69
2023/01/22 00:58:24;;;;;;;0.00;0.00;;;1.70;83.20;;;;;;4990108;28;20372;-69
2023/01/22 01:00:50;;;;;;;0.00;0.00;;;1.70;83.30;;;;;;4963692;28;20551;-69
2023/01/22 01:03:31;;;;;;;0.00;0.00;;;1.70;83.30;;;;;;4972729;28;20047;-69
2023/01/22 01:06:04;;;;;;;0.45;0.45;;;1.70;83.30;;;;;;4973268;28;20062;-69
2023/01/22 01:08:32;;;;;;;0.00;0.00;;;1.70;83.40;;;;;;4973961;28;20043;-69
2023/01/22 01:11:00;;;;;;;0.00;0.00;;;1.70;83.40;;;;;;4991145;28;20384;-69
2023/01/22 01:13:27;;;;;;;0.45;0.45;;;1.70;83.40;;;;;;4990413;28;20046;-69
2023/01/22 01:16:00;;;;;;;0.03;0.03;;;1.70;83.50;;;;;;4985922;28;20043;-69
2023/01/22 01:18:26;;;;;;;0.00;0.00;;;1.70;83.50;;;;;;4990422;28;20077;-69
2023/01/22 01:20:56;;;;;;;0.00;0.00;;;1.60;83.50;;;;;;4991055;28;20455;-69
2023/01/22 01:23:23;;;;;;;0.00;0.00;;;1.60;83.50;;;;;;4990851;28;20844;-69
2023/01/22 01:25:48;;;;;;;0.00;0.00;;;1.60;83.50;;;;;;4976978;28;20043;-69
2023/01/22 01:28:14;;;;;;;0.55;0.55;;;1.50;83.50;;;;;;4972552;28;20133;-69
2023/01/22 01:30:39;;;;;;;0.00;0.00;;;1.50;83.60;;;;;;4989673;28;20527;-69
2023/01/22 01:33:05;;;;;;;0.03;0.03;;;1.60;83.70;;;;;;4979566;28;20559;-69
2023/01/22 01:35:30;;;;;;;0.00;0.00;;;1.50;83.70;;;;;;4978523;28;20491;-69
2023/01/22 01:37:56;;;;;;;0.00;0.00;;;1.50;83.70;;;;;;4991173;28;20050;-69
2023/01/22 01:40:21;;;;;;;0.00;0.00;;;1.50;83.80;;;;;;4975745;28;20077;-69
2023/01/22 01:42:47;;;;;;;0.00;0.00;;;1.50;83.90;;;;;;4972504;28;20488;-69
2023/01/22 01:45:28;;;;;;;0.00;0.00;;;1.40;83.80;;;;;;4971759;28;20101;-69
2023/01/22 01:48:22;;;;;;;0.03;0.03;;;1.40;83.90;;;;;;4989239;28;20074;-69
2023/01/22 01:51:02;;;;;;;0.00;0.00;;;1.30;84.00;;;;;;4987965;28;20050;-69
2023/01/22 01:53:28;;;;;;;0.00;0.00;;;1.40;84.10;;;;;;4981260;28;20088;-69
2023/01/22 01:55:56;;;;;;;0.10;0.10;;;1.30;84.20;;;;;;4973880;28;20051;-69
2023/01/22 01:58:26;;;;;;;0.00;0.00;;;1.30;84.30;;;;;;4988735;28;20046;-69
2023/01/22 02:00:58;;;;;;;0.00;0.00;;;1.30;84.40;;;;;;4973126;28;20090;-69
2023/01/22 02:03:25;;;;;;;0.10;0.10;;;1.30;84.50;;;;;;4981313;28;20529;-69
2023/01/22 02:05:51;;;;;;;0.00;0.00;;;1.20;84.70;;;;;;4974074;28;20062;-69
2023/01/22 02:08:17;;;;;;;0.00;0.00;;;1.20;84.80;;;;;;4978928;28;20075;-69
2023/01/22 02:10:43;;;;;;;0.00;0.00;;;1.20;84.80;;;;;;4973963;28;20054;-69
2023/01/22 02:13:19;;;;;;;0.00;0.00;;;1.30;84.80;;;;;;4971258;28;20129;-69
2023/01/22 02:15:45;;;;;;;0.00;0.00;;;1.30;84.90;;;;;;4990983;28;20114;-69
2023/01/22 02:18:11;;;;;;;0.00;0.00;;;1.30;85.00;;;;;;4976635;28;20516;-69
2023/01/22 02:20:49;;;;;;;0.73;0.73;;;1.40;85.00;;;;;;4988837;28;20491;-69
2023/01/22 02:23:15;;;;;;;0.00;0.00;;;1.40;85.00;;;;;;4981724;28;20050;-69
2023/01/22 02:25:40;;;;;;;4.13;1.02;;;1.40;84.90;;;;;;4990363;28;20466;-69
2023/01/22 02:28:06;;;;;;;0.00;0.00;;;1.40;85.00;;;;;;4989054;28;20376;-69
2023/01/22 02:30:31;;;;;;;0.00;0.00;;;1.40;85.00;;;;;;4980458;28;20479;-69
2023/01/22 02:32:57;;;;;;;0.00;0.00;;;1.40;85.10;;;;;;4990479;28;20096;-69
2023/01/22 02:35:23;;;;;;;0.00;0.00;;;1.50;85.10;;;;;;4989566;28;20085;-69
2023/01/22 02:37:48;;;;;;;0.00;0.00;;;1.40;85.20;;;;;;4975032;28;20078;-69
2023/01/22 02:40:14;;;;;;;0.00;0.00;;;1.50;85.20;;;;;;4973105;28;20046;-69
2023/01/22 02:42:40;;;;;;;0.00;0.00;;;1.50;85.30;;;;;;4970720;28;20507;-69
2023/01/22 02:45:06;;;;;;;0.00;0.00;;;1.60;85.30;;;;;;4979377;28;20054;-69
2023/01/22 02:47:34;;;;;;;0.00;0.00;;;1.60;85.20;;;;;;4990528;28;20051;-69
2023/01/22 02:50:00;;;;;;;0.00;0.00;;;1.60;85.10;;;;;;4980489;28;20189;-69
2023/01/22 02:52:26;;;;;;;0.00;0.00;;;1.60;85.20;;;;;;4970935;28;20685;-69
2023/01/22 02:54:51;;;;;;;0.00;0.00;;;1.60;85.30;;;;;;4971488;28;20034;-69
2023/01/22 02:57:17;;;;;;;0.00;0.00;;;1.60;85.30;;;;;;4974394;28;20039;-69
2023/01/22 02:59:42;;;;;;;0.00;0.00;;;1.70;85.40;;;;;;4972704;28;20043;-69
2023/01/22 03:02:08;;;;;;;0.00;0.00;;;1.70;85.30;;;;;;4990034;28;20054;-69
2023/01/22 03:04:33;;;;;;;0.00;0.00;;;1.70;85.30;;;;;;4986188;28;20047;-69
2023/01/22 03:06:59;;;;;;;0.00;0.00;;;1.70;85.20;;;;;;4989791;28;20049;-69
2023/01/22 03:09:24;;;;;;;0.13;0.13;;;1.70;85.30;;;;;;4985706;28;20046;-69
2023/01/22 03:11:50;;;;;;;0.00;0.00;;;1.70;85.20;;;;;;4987345;28;20415;-69
2023/01/22 03:22:28;;;;;;;0.00;0.00;;;1.80;85.40;;;;;;4971320;28;20062;-69
2023/01/22 03:24:54;;;;;;;0.00;0.00;;;1.70;85.50;;;;;;4969510;28;20550;-69
2023/01/22 03:27:22;;;;;;;0.32;0.32;;;1.70;85.50;;;;;;4969235;28;20043;-69
2023/01/22 03:29:48;;;;;;;0.40;0.40;;;1.70;85.60;;;;;;4980133;28;20089;-69
2023/01/22 03:32:14;;;;;;;0.00;0.00;;;1.80;85.60;;;;;;4988738;28;20045;-69
2023/01/22 03:34:40;;;;;;;0.00;0.00;;;1.80;85.60;;;;;;4970305;28;20057;-69
2023/01/22 03:37:07;;;;;;;0.00;0.00;;;1.80;85.60;;;;;;4980981;28;20706;-69
2023/01/22 03:39:33;;;;;;;0.00;0.00;;;1.90;85.50;;;;;;4972544;28;20146;-69
2023/01/22 03:41:58;;;;;;;0.00;0.00;;;1.80;85.40;;;;;;4971973;28;20055;-69
2023/01/22 03:44:24;;;;;;;0.10;0.10;;;1.70;85.50;;;;;;4991248;28;20113;-69
2023/01/22 03:46:50;;;;;;;0.05;0.05;;;1.80;85.60;;;;;;4992604;28;20117;-69
2023/01/22 03:49:16;;;;;;;0.00;0.00;;;1.80;85.40;;;;;;4992772;28;20129;-69
2023/01/22 03:51:42;;;;;;;0.08;0.08;;;1.70;85.40;;;;;;4992159;28;20125;-69
2023/01/22 03:54:12;;;;;;;0.10;0.10;;;1.70;85.40;;;;;;4990527;28;20571;-69
2023/01/22 03:56:38;;;;;;;0.00;0.00;;;1.80;85.40;;;;;;4992755;28;20042;-69
2023/01/22 03:59:04;;;;;;;0.05;0.05;;;1.80;85.30;;;;;;4978603;28;20043;-69
2023/01/22 04:01:30;;;;;;;0.00;0.00;;;1.70;85.00;;;;;;4973597;28;20411;-69
2023/01/22 04:03:55;;;;;;;5.38;2.28;;;1.70;84.90;;;;;;4990366;28;20398;-69
2023/01/22 04:06:22;;;;;;;0.00;0.00;;;1.70;85.00;;;;;;4993334;28;20038;-69
2023/01/22 04:08:50;;;;;;;0.00;0.00;;;1.70;84.90;;;;;;4991677;28;20050;-69
2023/01/22 04:11:17;;;;;;;0.03;0.03;;;1.70;84.90;;;;;;4992975;28;20068;-69
2023/01/22 04:13:43;;;;;;;0.00;0.00;;;1.70;84.80;;;;;;4992342;28;20047;-69
2023/01/22 04:16:10;;;;;;;0.00;0.00;;;1.70;84.80;;;;;;4982821;28;20054;-69
2023/01/22 04:18:36;;;;;;;0.10;0.10;;;1.70;84.80;;;;;;4973806;28;20053;-69
2023/01/22 04:21:02;;;;;;;0.00;0.00;;;1.70;84.80;;;;;;4975123;28;20051;-69
2023/01/22 04:23:27;;;;;;;0.00;0.00;;;1.70;84.70;;;;;;4975488;28;20055;-68
2023/01/22 04:25:53;;;;;;;0.00;0.00;;;1.70;84.90;;;;;;4978019;28;20676;-69
2023/01/22 04:28:19;;;;;;;0.00;0.00;;;1.70;84.90;;;;;;4991570;28;20042;-69
2023/01/22 04:30:49;;;;;;;0.00;0.00;;;1.70;84.80;;;;;;4990683;28;20042;-69
2023/01/22 04:33:14;;;;;;;0.00;0.00;;;1.70;84.80;;;;;;4982153;28;20054;-69
2023/01/22 04:35:41;;;;;;;0.10;0.10;;;1.70;84.90;;;;;;4982274;28;20043;-69
2023/01/22 04:38:10;;;;;;;0.10;0.10;;;1.70;85.00;;;;;;4987766;28;20486;-69
2023/01/22 04:40:36;;;;;;;0.00;0.00;;;1.70;85.10;;;;;;4973112;28;20046;-69
2023/01/22 04:43:03;;;;;;;0.10;0.10;;;1.80;85.20;;;;;;4983019;28;20046;-69
2023/01/22 04:45:28;;;;;;;0.00;0.00;;;1.80;85.20;;;;;;4981129;28;20046;-69
2023/01/22 04:47:54;;;;;;;0.00;0.00;;;1.70;85.40;;;;;;4976548;28;20046;-69
2023/01/22 04:50:24;;;;;;;0.00;0.00;;;1.80;85.40;;;;;;4973333;28;20042;-69
2023/01/22 04:52:51;;;;;;;0.00;0.00;;;1.90;85.40;;;;;;4980500;28;20506;-69
2023/01/22 04:55:16;;;;;;;0.57;0.57;;;1.90;85.40;;;;;;4973092;28;20054;-69
2023/01/22 04:57:42;;;;;;;0.00;0.00;;;2.00;85.30;;;;;;4973009;28;20039;-69
2023/01/22 05:00:09;;;;;;;0.00;0.00;;;1.90;85.30;;;;;;4984306;28;20136;-69
2023/01/22 05:02:35;;;;;;;0.10;0.10;;;1.90;85.00;;;;;;4980874;28;20545;-69
2023/01/22 05:05:01;;;;;;;0.00;0.00;;;1.90;84.90;;;;;;4991567;28;20050;-69
2023/01/22 05:07:26;;;;;;;0.10;0.10;;;1.90;84.90;;;;;;4978840;28;20680;-69
2023/01/22 05:09:52;;;;;;;0.00;0.00;;;2.00;84.80;;;;;;4976997;28;20061;-69
2023/01/22 05:12:18;;;;;;;0.00;0.00;;;2.00;84.70;;;;;;4979758;28;20059;-69
2023/01/22 05:14:43;;;;;;;0.08;0.08;;;2.00;84.80;;;;;;4972490;28;20082;-69
2023/01/22 05:17:09;;;;;;;0.00;0.00;;;2.00;84.80;;;;;;4973947;28;20074;-68
2023/01/22 05:19:36;;;;;;;0.00;0.00;;;2.00;84.30;;;;;;4987858;28;20443;-68
2023/01/22 05:22:02;;;;;;;0.00;0.00;;;2.20;83.90;;;;;;4980480;28;20088;-69
2023/01/22 05:24:28;;;;;;;0.17;0.17;;;2.20;82.60;;;;;;4985852;28;20053;-69
2023/01/22 05:26:53;;;;;;;0.00;0.00;;;2.20;82.70;;;;;;5007186;28;20054;-70
2023/01/22 05:29:24;;;;;;;0.00;0.00;;;2.20;82.80;;;;;;4984024;28;20500;-71
2023/01/22 05:31:50;;;;;;;0.00;0.00;;;2.10;83.40;;;;;;4980225;28;20043;-70
2023/01/22 05:34:16;;;;;;;0.00;0.00;;;2.10;83.50;;;;;;4971211;28;20042;-71
2023/01/22 05:36:42;;;;;;;0.05;0.05;;;2.10;83.40;;;;;;5002359;28;20101;-70
2023/01/22 05:39:07;;;;;;;0.00;0.00;;;2.10;83.00;;;;;;4987261;28;20422;-70
2023/01/22 05:41:33;;;;;;;0.00;0.00;;;2.10;83.20;;;;;;4989106;28;20069;-71
2023/01/22 05:44:00;;;;;;;0.00;0.00;;;2.00;83.40;;;;;;4983937;28;20050;-70
2023/01/22 05:46:26;;;;;;;0.00;0.00;;;2.00;83.70;;;;;;4974994;28;20406;-71
2023/01/22 05:48:52;;;;;;;0.00;0.00;;;2.00;83.80;;;;;;4987576;28;20050;-70
2023/01/22 05:51:17;;;;;;;0.05;0.05;;;2.00;83.70;;;;;;4988596;28;20121;-70
2023/01/22 05:53:43;;;;;;;0.00;0.00;;;2.10;83.30;;;;;;4984073;28;20518;-70
2023/01/22 05:56:09;;;;;;;0.00;0.00;;;2.10;83.20;;;;;;4986287;28;20137;-70
2023/01/22 05:58:35;;;;;;;0.00;0.00;;;2.10;83.30;;;;;;4987298;28;20138;-70
2023/01/22 06:01:00;;;;;;;0.20;0.20;;;2.00;83.60;;;;;;4979140;28;20070;-70
2023/01/22 06:03:26;;;;;;;0.10;0.10;;;2.10;83.60;;;;;;4986195;28;20050;-70
2023/01/22 06:06:18;;;;;;;0.63;0.63;;;2.00;83.80;;;;;;4982799;28;20057;-70
2023/01/22 06:08:46;;;;;;;0.13;0.13;;;2.00;84.00;;;;;;4981509;28;20058;-70
2023/01/22 06:11:15;;;;;;;3.72;1.85;;;2.00;84.00;;;;;;4982677;28;20061;-70
2023/01/22 06:13:41;;;;;;;0.05;0.05;;;2.10;84.00;;;;;;4988067;28;20043;-70
2023/01/22 06:16:07;;;;;;;0.57;0.57;;;2.00;84.10;;;;;;5001347;28;20046;-70
2023/01/22 06:18:34;;;;;;;0.00;0.00;;;2.00;84.20;;;;;;4982638;28;20042;-70
2023/01/22 06:21:04;;;;;;;0.00;0.00;;;2.10;84.10;;;;;;4985067;28;20045;-70
2023/01/22 06:23:30;;;;;;;0.00;0.00;;;2.00;83.90;;;;;;4987092;28;20050;-70
2023/01/22 06:25:57;;;;;;;0.00;0.00;;;2.00;83.70;;;;;;4983488;28;20155;-70
2023/01/22 06:28:23;;;;;;;0.00;0.00;;;2.10;83.00;;;;;;4987189;28;20049;-70
2023/01/22 06:30:50;;;;;;;0.00;0.00;;;2.10;83.20;;;;;;4965214;28;20042;-71
2023/01/22 06:33:16;;;;;;;0.00;0.00;;;2.10;83.40;;;;;;4985140;28;20089;-70
2023/01/22 06:35:42;;;;;;;0.00;0.00;;;2.20;83.00;;;;;;4980640;28;20140;-70
2023/01/22 06:38:07;;;;;;;0.00;0.00;;;2.20;82.90;;;;;;4986967;28;20042;-69
2023/01/22 06:40:33;;;;;;;0.00;0.00;;;2.10;82.90;;;;;;4986737;28;20053;-70
2023/01/22 06:43:07;;;;;;;2.90;2.70;;;2.10;82.90;;;;;;4985677;28;20065;-70
2023/01/22 06:45:33;;;;;;;0.00;0.00;;;2.10;83.00;;;;;;4986999;28;20050;-70
2023/01/22 06:47:58;;;;;;;0.00;0.00;;;2.00;83.40;;;;;;4985263;28;20077;-70
2023/01/22 06:50:24;;;;;;;0.00;0.00;;;2.20;83.40;;;;;;4983617;28;20049;-70
2023/01/22 06:52:50;;;;;;;0.88;0.88;;;2.20;83.00;;;;;;4982729;28;20510;-69
2023/01/22 06:55:15;;;;;;;0.00;0.00;;;2.10;83.00;;;;;;4980911;28;20049;-70
2023/01/22 06:57:41;;;;;;;0.00;0.00;;;2.00;83.30;;;;;;4982030;28;20053;-70
2023/01/22 07:00:07;;;;;;;0.00;0.00;;;2.00;83.30;;;;;;4986419;28;20042;-70
2023/01/22 07:02:32;;;;;;;0.10;0.10;;;2.00;83.20;;;;;;4985501;28;20511;-68
2023/01/22 07:04:58;;;;;;;0.00;0.00;;;2.00;83.10;;;;;;4985201;28;20046;-69
2023/01/22 07:07:24;;;;;;;0.10;0.10;;;1.90;83.50;;;;;;4982636;28;20042;-69
2023/01/22 07:09:49;;;;;;;0.00;0.00;;;1.90;83.60;;;;;;4980247;28;20109;-69
2023/01/22 07:12:15;;;;;;;0.00;0.00;;;1.90;83.80;;;;;;4985699;28;20731;-68
2023/01/22 07:14:40;;;;;;;0.25;0.25;;;1.90;84.00;;;;;;4983073;28;20535;-68
2023/01/22 07:17:06;;;;;;;0.30;0.30;;;2.00;84.10;;;;;;4981428;28;20420;-69
2023/01/22 07:19:32;;;;;;;0.00;0.00;;;2.00;83.90;;;;;;4983451;28;20384;-69
2023/01/22 07:21:57;;;;;;;0.00;0.00;;;2.00;84.20;;;;;;4986671;28;20121;-69
2023/01/22 07:24:23;;;;;;;0.00;0.00;;;1.90;84.50;;;;;;4974457;28;20043;-69
2023/01/22 07:26:48;;;;;;;0.00;0.00;;;1.90;84.70;;;;;;4968256;28;20074;-70
2023/01/22 07:29:14;;;;;;;0.00;0.00;;;1.90;84.60;;;;;;4976675;28;20100;-69
2023/01/22 07:31:40;;;;;;;1.75;1.40;;;2.00;84.30;;;;;;4984558;28;20046;-69
2023/01/22 07:34:06;;;;;;;0.00;0.00;;;1.90;84.30;;;;;;4985550;28;20137;-69
2023/01/22 07:36:32;;;;;;;0.00;0.00;;;2.00;84.20;;;;;;4982820;28;20467;-69
2023/01/22 07:38:57;;;;;;;0.00;0.00;;;2.00;83.90;;;;;;4984557;28;20046;-69
2023/01/22 07:41:23;;;;;;;0.10;0.10;;;2.00;83.90;;;;;;4978075;28;20055;-70
2023/01/22 07:43:48;;;;;;;0.00;0.00;;;1.90;84.10;;;;;;4987097;28;20101;-69
2023/01/22 07:46:14;;;;;;;0.00;0.00;;;2.00;84.10;;;;;;4983175;28;20049;-69
2023/01/22 07:48:39;;;;;;;0.00;0.00;;;2.00;84.30;;;;;;4984525;28;20113;-69
2023/01/22 07:51:06;;;;;;;0.00;0.00;;;1.90;84.30;;;;;;4980081;28;20046;-70
2023/01/22 07:53:32;;;;;;;0.00;0.00;;;1.90;84.40;;;;;;4970577;28;20898;-71
2023/01/22 07:56:00;;;;;;;0.10;0.10;;;1.90;84.70;;;;;;4985583;28;20488;-71
2023/01/22 07:58:25;;;;;;;0.00;0.00;;;1.90;84.80;;;;;;4971293;28;20141;-71
2023/01/22 08:00:51;;;;;;;0.00;0.00;;;1.90;84.60;;;;;;4968531;28;20137;-73
2023/01/22 08:03:17;;;;;;;0.10;0.10;;;1.90;84.40;;;;;;4980007;28;20104;-70
2023/01/22 08:05:43;;;;;;;0.00;0.00;;;1.90;84.30;;;;;;4978025;28;20093;-70
2023/01/22 08:08:17;;;;;;;0.10;0.10;;;1.90;84.10;;;;;;4958053;28;20122;-70
2023/01/22 08:10:43;;;;;;;0.00;0.00;;;1.80;84.40;;;;;;4977032;28;20093;-71
2023/01/22 08:13:09;;;;;;;0.03;0.03;;;1.90;84.40;;;;;;4986378;28;20133;-70
2023/01/22 08:15:35;;;;;;;0.00;0.00;;;1.90;84.70;;;;;;4987828;28;20057;-70
2023/01/22 08:18:01;;;;;;;0.10;0.10;;;1.80;84.90;;;;;;4971793;28;20050;-70
2023/01/22 08:20:27;;;;;;;0.00;0.00;;;1.90;84.90;;;;;;4979788;28;20062;-69
2023/01/22 08:22:57;;;;;;;0.00;0.00;;;1.90;84.90;;;;;;4975859;28;20050;-70
2023/01/22 08:25:23;;;;;;;0.10;0.10;;;1.90;85.00;;;;;;4987931;28;20050;-69
2023/01/22 08:27:48;;;;;;;0.00;0.00;;;1.90;85.00;;;;;;4976654;28;20062;-68
2023/01/22 08:30:14;;;;;;;0.10;0.05;;;2.00;84.80;;;;;;4971025;28;20050;-68
2023/01/22 08:32:40;;;;;;;0.00;0.00;;;2.00;84.40;;;;;;4976312;28;20055;-69
2023/01/22 08:35:07;;;;;;;0.10;0.10;;;2.00;84.10;;;;;;4981393;28;20050;-69
2023/01/22 08:37:33;;;;;;;0.00;0.00;;;1.90;84.40;;;;;;4971970;28;20062;-69
2023/01/22 08:39:58;;;;;;;0.00;0.00;;;1.90;84.50;;;;;;4972925;28;20053;-69
2023/01/22 08:42:24;;;;;;;0.00;0.00;;;1.90;84.70;;;;;;4976240;28;20051;-69
2023/01/22 08:44:49;;;;;;;0.00;0.00;;;1.90;84.80;;;;;;4973002;28;20162;-69
2023/01/22 08:47:15;;;;;;;0.00;0.00;;;1.90;84.80;;;;;;4978444;28;20522;-69
2023/01/22 08:49:40;;;;;;;0.00;0.00;;;1.90;84.70;;;;;;4975657;28;20051;-68
2023/01/22 08:52:06;;;;;;;0.08;0.08;;;2.00;84.60;;;;;;4972927;28;20098;-68
2023/01/22 08:54:32;;;;;;;0.10;0.10;;;2.00;84.10;;;;;;4978431;28;20100;-69
2023/01/22 08:56:58;;;;;;;0.08;0.08;;;2.10;84.10;;;;;;4981469;28;20053;-69
2023/01/22 08:59:23;;;;;;;0.00;0.00;;;2.10;84.10;;;;;;4981655;28;20046;-68
2023/01/22 09:01:49;;;;;;;0.10;0.10;;;2.10;84.10;;;;;;4980511;28;20047;-68
2023/01/22 09:04:15;;;;;;;0.08;0.08;;;2.00;84.00;;;;;;4979093;28;20167;-69
2023/01/22 09:06:40;;;;;;;0.00;0.00;;;2.00;84.40;;;;;;4976933;28;20053;-69
2023/01/22 09:09:06;;;;;;;0.03;0.03;;;2.10;83.80;;;;;;4983544;28;20546;-69
2023/01/22 09:11:32;;;;;;;0.00;0.00;;;2.00;84.20;;;;;;4988539;28;20050;-69
2023/01/22 09:13:58;;;;;;;0.00;0.00;;;2.20;84.10;;;;;;4981730;28;20706;-69
2023/01/22 09:16:25;;;;;;;0.00;0.00;;;2.10;84.40;;;;;;4978472;28;20057;-70
2023/01/22 09:18:51;;;;;;;0.00;0.00;;;2.10;84.60;;;;;;4983853;28;20054;-70
2023/01/22 09:21:16;;;;;;;0.00;0.00;;;2.10;84.80;;;;;;4986302;28;20042;-69
2023/01/22 09:23:43;;;;;;;0.00;0.00;;;2.10;84.90;;;;;;4984637;28;20073;-67
2023/01/22 09:26:09;;;;;;;0.00;0.00;;;2.20;85.00;;;;;;4974496;28;20074;-67
2023/01/22 09:28:34;;;;;;;0.00;0.00;;;2.20;84.60;;;;;;4975142;28;20455;-66
2023/01/22 09:31:01;;;;;;;0.00;0.00;;;2.40;84.10;;;;;;4990362;28;20046;-67
2023/01/22 09:33:26;;;;;;;0.00;0.00;;;2.30;84.20;;;;;;4986883;28;20093;-66
2023/01/22 09:35:52;;;;;;;0.00;0.00;;;2.30;84.20;;;;;;4976452;28;20046;-66
2023/01/22 09:38:17;;;;;;;0.00;0.00;;;2.20;84.20;;;;;;4980884;28;20381;-64
2023/01/22 09:40:47;;;;;;;0.00;0.00;;;2.30;84.10;;;;;;4983964;28;20038;-64
2023/01/22 09:43:35;;;;;;;0.00;0.00;;;2.30;83.90;;;;;;4986477;28;20057;-64
2023/01/22 09:46:04;;;;;;;0.00;0.00;;;2.30;84.00;;;;;;4991184;28;20122;-65
2023/01/22 09:48:36;;;;;;;0.45;0.45;;;2.10;84.00;;;;;;4985102;28;20495;-65
2023/01/22 09:51:02;;;;;;;0.00;0.00;;;2.20;84.50;;;;;;4990178;28;20450;-64
2023/01/22 09:53:28;;;;;;;0.00;0.00;;;2.40;84.20;;;;;;4989940;28;20057;-65
2023/01/22 09:55:54;;;;;;;0.00;0.00;;;2.40;83.90;;;;;;4990338;28;20874;-65
2023/01/22 09:58:22;;;;;;;0.00;0.00;;;2.40;83.50;;;;;;4991097;28;20042;-65
2023/01/22 10:00:54;;;;;;;0.00;0.00;;;2.50;83.30;;;;;;4989821;28;20050;-65
2023/01/22 10:03:34;;;;;;;0.00;0.00;;;2.40;83.30;;;;;;4991025;28;20051;-65
2023/01/22 10:06:13;;;;;;;0.17;0.17;;;2.40;83.00;;;;;;5006448;28;20476;-65
2023/01/22 10:09:09;;;;;;;0.00;0.00;;;2.40;83.00;;;;;;4991398;28;20042;-65
2023/01/22 10:11:37;;;;;;;0.00;0.00;;;2.40;83.20;;;;;;4990027;28;20504;-65
2023/01/22 10:14:06;;;;;;;0.00;0.00;;;2.40;83.20;;;;;;4989526;28;20069;-65
2023/01/22 10:16:32;;;;;;;0.13;0.13;;;2.40;83.40;;;;;;4985436;28;20042;-65
2023/01/22 10:19:03;;;;;;;0.00;0.00;;;2.40;83.60;;;;;;4992114;28;20045;-65
2023/01/22 10:21:40;;;;;;;0.10;0.10;;;2.40;83.70;;;;;;4982798;28;20074;-66
2023/01/22 10:24:08;;;;;;;0.10;0.10;;;2.40;83.70;;;;;;4974156;28;20046;-65
2023/01/22 10:26:37;;;;;;;0.00;0.00;;;2.40;83.70;;;;;;4971481;28;20069;-65
2023/01/22 10:29:06;;;;;;;0.00;0.00;;;2.40;83.50;;;;;;4981185;28;20416;-66
2023/01/22 10:31:35;;;;;;;0.00;0.00;;;2.50;83.40;;;;;;4971391;28;20082;-66
2023/01/22 10:34:12;;;;;;;0.00;0.00;;;2.40;83.70;;;;;;4982499;28;20097;-66
2023/01/22 10:36:37;;;;;;;0.00;0.00;;;2.50;83.70;;;;;;4981095;28;20129;-65
2023/01/22 10:39:12;;;;;;;0.20;0.20;;;2.50;83.60;;;;;;4979885;28;20089;-65
2023/01/22 10:41:38;;;;;;;0.00;0.00;;;2.50;83.40;;;;;;4988181;28;20039;-66
2023/01/22 10:44:19;;;;;;;0.00;0.00;;;2.50;83.50;;;;;;4990074;28;20129;-65
2023/01/22 10:46:47;;;;;;;0.00;0.00;;;2.60;83.50;;;;;;4988990;28;20038;-65
2023/01/22 10:49:25;;;;;;;0.00;0.00;;;2.50;83.50;;;;;;4988239;28;20053;-65
2023/01/22 10:51:56;;;;;;;0.00;0.00;;;2.50;83.50;;;;;;4964972;28;20101;-64
2023/01/22 10:54:31;;;;;;;0.00;0.00;;;2.70;83.30;;;;;;4968636;28;20053;-65
2023/01/22 10:57:27;;;;;;;0.00;0.00;;;2.60;83.10;;;;;;4978303;28;20077;-65
2023/01/22 10:59:58;;;;;;;0.00;0.00;;;2.60;83.30;;;;;;4972602;28;20058;-65
2023/01/22 11:02:25;;;;;;;0.00;0.00;;;2.50;83.60;;;;;;4985289;28;20112;-65
2023/01/22 11:04:52;;;;;;;0.10;0.10;;;2.60;83.90;;;;;;4985161;28;20395;-65
2023/01/22 11:07:27;;;;;;;0.03;0.03;;;2.60;83.70;;;;;;4986478;28;20053;-65
2023/01/22 11:10:02;;;;;;;0.15;0.15;;;2.60;83.70;;;;;;4976456;28;20050;-64
2023/01/22 11:12:33;;;;;;;0.00;0.00;;;2.70;83.60;;;;;;4980374;28;20081;-64
2023/01/22 11:15:26;;;;;;;0.00;0.00;;;2.70;83.40;;;;;;4982701;28;20038;-65
2023/01/22 11:18:00;;;;;;;0.00;0.00;;;2.60;83.40;;;;;;4975116;28;20051;-64
2023/01/22 11:20:42;;;;;;;0.15;0.15;;;2.60;83.50;;;;;;4984890;28;20046;-66
2023/01/22 11:23:34;;;;;;;0.88;0.65;;;2.60;83.60;;;;;;4984006;28;20077;-65
2023/01/22 11:26:15;;;;;;;0.00;0.00;;;2.60;83.10;;;;;;4985960;28;20050;-65
2023/01/22 11:28:48;;;;;;;0.00;0.00;;;2.70;83.20;;;;;;4985547;28;20452;-66
2023/01/22 11:31:46;;;;;;;0.10;0.10;;;2.70;82.90;;;;;;4985287;28;20467;-65
2023/01/22 11:34:37;;;;;;;0.00;0.00;;;2.70;82.70;;;;;;4985648;28;20077;-66
2023/01/22 11:37:13;;;;;;;0.00;0.00;;;2.60;82.90;;;;;;4988078;28;21068;-65
2023/01/22 11:40:03;;;;;;;0.00;0.00;;;2.60;83.10;;;;;;4988107;28;20425;-65
2023/01/22 11:42:39;;;;;;;0.10;0.10;;;2.60;83.20;;;;;;4983309;28;20097;-64
2023/01/22 11:45:51;;;;;;;0.00;0.00;;;2.70;83.10;;;;;;4980612;28;20058;-65
2023/01/22 11:48:28;;;;;;;0.00;0.00;;;2.60;83.30;;;;;;4985534;28;20054;-64
2023/01/22 11:51:19;;;;;;;0.10;0.10;;;2.60;83.60;;;;;;4986263;28;20325;-64
2023/01/22 11:53:49;;;;;;;0.00;0.00;;;2.60;83.30;;;;;;4980697;28;20050;-64
2023/01/22 11:56:30;;;;;;;0.00;0.00;;;2.60;83.60;;;;;;4978545;28;20415;-64
2023/01/22 11:59:16;;;;;;;0.10;0.10;;;2.70;83.60;;;;;;4999914;28;20055;-65
2023/01/22 12:02:26;;;;;;;0.30;0.28;;;2.70;83.70;;;;;;4982022;28;20058;-64
2023/01/22 12:05:06;;;;;;;0.20;0.20;;;2.90;83.50;;;;;;4893819;29;20052;-64
2023/01/22 12:07:53;;;;;;;0.08;0.08;;;2.80;83.60;;;;;;4986038;28;20050;-64
2023/01/22 12:10:42;;;;;;;0.10;0.10;;;2.80;83.70;;;;;;4985538;28;20521;-65
2023/01/22 12:13:32;;;;;;;0.00;0.00;;;2.90;83.80;;;;;;4986540;28;20482;-64
2023/01/22 12:16:13;;;;;;;0.00;0.00;;;2.90;83.30;;;;;;4978666;28;20055;-64
2023/01/22 12:18:51;;;;;;;0.00;0.00;;;2.80;83.50;;;;;;4984449;28;20062;-64
2023/01/22 12:21:22;;;;;;;0.05;0.05;;;2.80;83.80;;;;;;4983017;28;20058;-63
2023/01/22 12:24:04;;;;;;;0.00;0.00;;;2.80;83.90;;;;;;4982820;28;20051;-64
2023/01/22 12:26:39;;;;;;;0.00;0.00;;;2.90;83.90;;;;;;4980644;28;20050;-63
2023/01/22 12:29:17;;;;;;;0.00;0.00;;;2.80;83.50;;;;;;4982690;28;20047;-68
2023/01/22 12:31:49;;;;;;;0.00;0.00;;;2.80;83.90;;;;;;4996038;28;20038;-69
2023/01/22 12:34:27;;;;;;;0.10;0.10;;;2.90;83.90;;;;;;4995410;28;20056;-68
2023/01/22 12:36:54;;;;;;;0.00;0.00;;;3.10;83.20;;;;;;4991388;28;20038;-69
2023/01/22 12:39:40;;;;;;;0.00;0.00;;;3.10;83.20;;;;;;4993518;28;20159;-69
2023/01/22 12:42:39;;;;;;;0.00;0.00;;;3.00;83.20;;;;;;4998475;28;20150;-68
2023/01/22 12:45:23;;;;;;;0.05;0.05;;;3.10;83.30;;;;;;4990919;28;20074;-68
2023/01/22 12:48:05;;;;;;;0.00;0.00;;;3.10;83.50;;;;;;4990122;28;20050;-69
2023/01/22 12:50:31;;;;;;;0.00;0.00;;;3.10;83.50;;;;;;4972971;28;20055;-69
2023/01/22 12:53:04;;;;;;;0.00;0.00;;;3.10;83.50;;;;;;4973281;28;20042;-69
2023/01/22 12:55:36;;;;;;;0.00;0.00;;;3.20;83.50;;;;;;4973275;28;20783;-69
2023/01/22 12:58:03;;;;;;;;;;;3.20;83.60;;;;;;4973542;28;20550;-69
2023/01/22 13:00:34;;;;;;;0.00;0.00;;;3.30;83.20;;;;;;4972728;28;19922;-69
2023/01/22 13:03:20;;;;;;;0.00;0.00;;;3.30;83.50;;;;;;4983529;28;20046;-69
2023/01/22 13:05:46;;;;;;;0.00;0.00;;;3.30;83.50;;;;;;4992678;28;20030;-69
2023/01/22 13:08:20;;;;;;;0.05;0.05;;;3.30;83.40;;;;;;4991300;28;20045;-69
2023/01/22 13:10:54;;;;;;;0.30;0.30;;;3.50;83.10;;;;;;4992205;28;20054;-68
2023/01/22 13:13:28;;;;;;;0.00;0.00;;;3.40;82.90;;;;;;4991926;28;20042;-68
2023/01/22 13:16:05;;;;;;;0.10;0.10;;;3.40;83.30;;;;;;4991874;28;20072;-68
2023/01/22 13:18:52;;;;;;;0.00;0.00;;;3.30;83.50;;;;;;4991774;28;20046;-69